createdAt,value
2022-09-27T00:00:47.513Z,15.79
2022-09-27T00:03:14.416Z,16.15
2022-09-27T00:06:21.750Z,15.82
2022-09-27T00:08:53.927Z,16.31
2022-09-27T00:11:23.765Z,16.40
2022-09-27T00:14:11.719Z,16.47
2022-09-27T00:16:52.356Z,15.95
2022-09-27T00:19:23.797Z,16.33
2022-09-27T00:22:10.734Z,16.06
2022-09-27T00:25:13.803Z,16.35
2022-09-27T00:27:54.283Z,16.64
2022-09-27T00:30:21.374Z,16.27
2022-09-27T00:32:48.332Z,16.51
2022-09-27T00:35:16.506Z,16.36
2022-09-27T00:37:43.381Z,16.24
2022-09-27T00:40:10.470Z,16.32
2022-09-27T00:42:37.330Z,16.16
2022-09-27T00:45:28.754Z,16.59
2022-09-27T00:48:34.751Z,16.65
2022-09-27T00:51:35.763Z,16.77
2022-09-27T00:54:39.817Z,16.57
2022-09-27T00:57:33.671Z,16.43
2022-09-27T01:00:10.291Z,16.71
2022-09-27T01:02:43.918Z,16.64
2022-09-27T01:05:33.801Z,16.52
2022-09-27T01:08:14.441Z,16.34
2022-09-27T01:10:53.361Z,16.23
2022-09-27T01:13:47.786Z,16.33
2022-09-27T01:17:01.880Z,16.39
2022-09-27T01:19:43.891Z,16.33
2022-09-27T01:22:44.794Z,16.24
2022-09-27T01:25:43.528Z,16.16
2022-09-27T01:28:20.379Z,16.07
2022-09-27T01:31:02.110Z,16.15
2022-09-27T01:34:11.794Z,15.85
2022-09-27T01:37:15.863Z,16.07
2022-09-27T01:39:51.678Z,15.69
2022-09-27T01:42:50.292Z,15.97
2022-09-27T01:45:25.778Z,16.04
2022-09-27T01:48:24.698Z,16.01
2022-09-27T01:50:59.806Z,15.73
2022-09-27T01:53:29.889Z,15.67
2022-09-27T01:56:25.048Z,15.38
2022-09-27T01:59:27.835Z,15.51
2022-09-27T02:03:10.791Z,15.37
2022-09-27T02:06:44.801Z,15.45
2022-09-27T02:09:38.420Z,15.26
2022-09-27T02:12:27.416Z,15.39
2022-09-27T02:15:23.808Z,15.64
2022-09-27T02:18:34.036Z,15.82
2022-09-27T02:21:18.851Z,16.05
2022-09-27T02:24:03.158Z,15.99
2022-09-27T02:26:38.714Z,16.06
2022-09-27T02:29:14.894Z,15.87
2022-09-27T02:31:48.284Z,15.65
2022-09-27T02:34:42.829Z,15.95
2022-09-27T02:37:23.753Z,15.51
2022-09-27T02:39:51.292Z,15.67
2022-09-27T02:42:18.712Z,15.57
2022-09-27T02:44:46.139Z,15.93
2022-09-27T02:47:12.966Z,16.19
2022-09-27T02:49:39.986Z,16.03
2022-09-27T02:53:11.469Z,16.03
2022-09-27T02:56:10.640Z,15.84
2022-09-27T02:59:31.824Z,15.77
2022-09-27T03:02:38.277Z,15.73
2022-09-27T03:06:16.186Z,15.45
2022-09-27T03:09:16.879Z,15.68
2022-09-27T03:11:57.520Z,15.55
2022-09-27T03:14:45.852Z,15.57
2022-09-27T03:17:49.324Z,15.45
2022-09-27T03:20:54.888Z,15.38
2022-09-27T03:23:35.503Z,15.56
2022-09-27T03:26:02.704Z,15.45
2022-09-27T03:28:30.015Z,15.04
2022-09-27T03:30:57.795Z,15.59
2022-09-27T03:34:02.793Z,15.59
2022-09-27T03:36:29.858Z,15.12
2022-09-27T03:38:56.693Z,15.44
2022-09-27T03:41:23.719Z,15.15
2022-09-27T03:43:50.844Z,15.34
2022-09-27T03:46:17.960Z,15.39
2022-09-27T03:48:45.038Z,15.31
2022-09-27T03:51:12.749Z,15.62
2022-09-27T03:53:39.822Z,15.51
2022-09-27T03:56:06.941Z,15.70
2022-09-27T03:58:54.903Z,15.70
2022-09-27T04:01:40.413Z,15.49
2022-09-27T04:04:47.871Z,15.58
2022-09-27T04:07:29.021Z,15.03
2022-09-27T04:09:55.931Z,14.64
2022-09-27T04:12:23.016Z,14.85
2022-09-27T04:15:09.896Z,15.00
2022-09-27T04:18:16.904Z,15.06
2022-09-27T04:21:23.866Z,14.78
2022-09-27T04:24:05.450Z,15.05
2022-09-27T04:26:52.907Z,15.33
2022-09-27T04:29:34.453Z,14.74
2022-09-27T04:32:18.239Z,14.54
2022-09-27T04:35:55.898Z,15.20
2022-09-27T04:38:38.871Z,15.10
2022-09-27T04:41:07.811Z,15.01
2022-09-27T04:43:38.987Z,14.86
2022-09-27T04:46:06.749Z,15.09
2022-09-27T04:48:34.522Z,15.13
2022-09-27T04:51:03.273Z,15.13
2022-09-27T04:53:30.474Z,15.43
2022-09-27T04:56:17.914Z,15.45
2022-09-27T04:58:58.777Z,15.29
2022-09-27T05:01:25.853Z,15.27
2022-09-27T05:04:28.906Z,14.69
2022-09-27T05:07:11.541Z,15.28
2022-09-27T05:09:45.417Z,14.67
2022-09-27T05:12:33.924Z,14.80
2022-09-27T05:15:34.937Z,14.73
2022-09-27T05:18:43.566Z,14.20
2022-09-27T05:21:59.346Z,14.15
2022-09-27T05:24:53.916Z,14.59
2022-09-27T05:27:34.601Z,14.56
2022-09-27T05:32:51.757Z,14.34
2022-09-27T05:35:51.438Z,14.51
2022-09-27T05:38:18.825Z,14.30
2022-09-27T05:40:51.016Z,14.33
2022-09-27T05:43:18.441Z,13.89
2022-09-27T05:45:45.478Z,14.02
2022-09-27T05:48:14.751Z,14.40
2022-09-27T05:51:17.974Z,14.12
2022-09-27T05:54:18.991Z,14.16
2022-09-27T05:57:00.382Z,14.16
2022-09-27T05:59:42.351Z,14.30
2022-09-27T06:02:21.419Z,13.88
2022-09-27T06:05:26.954Z,14.47
2022-09-27T06:08:10.528Z,15.06
2022-09-27T06:10:43.071Z,14.33
2022-09-27T06:13:12.925Z,14.46
2022-09-27T06:15:44.013Z,15.22
2022-09-27T06:18:13.268Z,15.30
2022-09-27T06:21:00.995Z,15.63
2022-09-27T06:23:41.956Z,16.21
2022-09-27T06:26:34.969Z,17.32
2022-09-27T06:29:51.944Z,17.43
2022-09-27T06:32:58.172Z,17.82
2022-09-27T06:35:45.539Z,17.95
2022-09-27T06:38:15.896Z,18.01
2022-09-27T06:41:09.968Z,17.59
2022-09-27T06:43:58.502Z,17.64
2022-09-27T06:46:43.588Z,17.62
2022-09-27T06:49:13.413Z,17.75
2022-09-27T06:52:03.981Z,18.49
2022-09-27T06:54:44.566Z,18.36
2022-09-27T06:57:32.162Z,18.45
2022-09-27T07:00:17.801Z,18.13
2022-09-27T07:03:05.396Z,18.32
2022-09-27T07:06:21.111Z,17.97
2022-09-27T07:09:24.193Z,17.79
2022-09-27T07:12:11.012Z,18.68
2022-09-27T07:15:12.121Z,18.78
2022-09-27T07:18:00.335Z,18.67
2022-09-27T07:20:49.994Z,18.19
2022-09-27T07:23:51.003Z,17.47
2022-09-27T07:26:39.658Z,18.42
2022-09-27T07:29:10.332Z,18.70
2022-09-27T07:31:39.209Z,18.07
2022-09-27T07:34:06.536Z,18.23
2022-09-27T07:36:33.540Z,18.10
2022-09-27T07:39:00.943Z,17.88
2022-09-27T07:41:28.671Z,18.51
2022-09-27T07:43:57.234Z,18.57
2022-09-27T07:46:26.080Z,18.91
2022-09-27T07:48:55.123Z,19.12
2022-09-27T07:52:22.003Z,18.52
2022-09-27T07:55:33.921Z,18.98
2022-09-27T07:58:11.366Z,19.42
2022-09-27T08:00:40.886Z,19.30
2022-09-27T08:03:16.266Z,19.48
2022-09-27T08:05:56.226Z,19.62
2022-09-27T08:08:37.306Z,19.92
2022-09-27T08:11:16.809Z,18.67
2022-09-27T08:13:46.276Z,18.23
2022-09-27T08:16:14.362Z,19.17
2022-09-27T08:19:00.111Z,19.20
2022-09-27T08:21:58.911Z,19.56
2022-09-27T08:24:58.041Z,18.38
2022-09-27T08:28:00.196Z,19.36
2022-09-27T08:30:47.166Z,19.43
2022-09-27T08:33:14.247Z,18.55
2022-09-27T08:35:41.305Z,19.17
2022-09-27T08:38:10.702Z,19.77
2022-09-27T08:40:43.809Z,20.14
2022-09-27T08:43:18.613Z,20.01
2022-09-27T08:46:10.743Z,19.80
2022-09-27T08:49:03.054Z,20.27
2022-09-27T08:51:46.842Z,20.08
2022-09-27T08:54:22.443Z,20.21
2022-09-27T08:56:49.612Z,19.83
2022-09-27T08:59:21.953Z,20.90
2022-09-27T09:01:51.554Z,21.34
2022-09-27T09:04:55.060Z,21.10
2022-09-27T09:08:17.029Z,21.85
2022-09-27T09:11:36.903Z,22.11
2022-09-27T09:14:45.503Z,22.70
2022-09-27T09:17:44.669Z,21.63
2022-09-27T09:20:50.621Z,22.80
2022-09-27T09:23:55.085Z,22.37
2022-09-27T09:27:33.072Z,23.38
2022-09-27T09:30:29.672Z,22.92
2022-09-27T09:33:20.867Z,22.99
2022-09-27T09:35:58.366Z,22.97
2022-09-27T09:38:35.989Z,23.98
2022-09-27T09:41:26.357Z,24.02
2022-09-27T09:44:14.885Z,24.39
2022-09-27T09:47:06.058Z,24.04
2022-09-27T09:49:53.586Z,24.23
2022-09-27T09:52:23.087Z,23.71
2022-09-27T09:55:04.572Z,23.13
2022-09-27T09:57:38.994Z,23.28
2022-09-27T10:00:15.274Z,24.50
2022-09-27T10:03:11.089Z,24.29
2022-09-27T10:06:12.098Z,24.35
2022-09-27T10:08:55.808Z,24.61
2022-09-27T10:11:55.088Z,24.70
2022-09-27T10:14:59.209Z,24.20
2022-09-27T10:18:01.029Z,25.04
2022-09-27T10:20:43.106Z,24.16
2022-09-27T10:23:35.111Z,24.92
2022-09-27T10:26:24.260Z,24.80
2022-09-27T10:28:52.224Z,24.31
2022-09-27T10:31:37.429Z,24.02
2022-09-27T10:34:18.249Z,24.26
2022-09-27T10:37:19.436Z,21.73
2022-09-27T10:40:27.135Z,22.03
2022-09-27T10:43:15.124Z,22.73
2022-09-27T10:46:27.286Z,23.36
2022-09-27T10:49:43.114Z,22.80
2022-09-27T10:52:42.641Z,21.98
2022-09-27T10:55:23.951Z,21.64
2022-09-27T10:57:55.532Z,21.44
2022-09-27T11:00:26.313Z,22.55
2022-09-27T11:03:04.597Z,22.43
2022-09-27T11:05:52.252Z,21.85
2022-09-27T11:08:34.366Z,22.41
2022-09-27T11:11:14.318Z,22.00
2022-09-27T11:14:30.109Z,22.60
2022-09-27T11:17:57.136Z,24.42
2022-09-27T11:20:49.535Z,23.18
2022-09-27T11:23:52.144Z,22.94
2022-09-27T11:27:06.779Z,22.93
2022-09-27T11:29:33.614Z,22.82
2022-09-27T11:32:37.424Z,23.72
2022-09-27T11:35:26.715Z,23.83
2022-09-27T11:38:52.806Z,24.58
2022-09-27T11:41:42.214Z,23.71
2022-09-27T11:44:25.791Z,22.20
2022-09-27T11:47:20.442Z,22.55
2022-09-27T11:50:07.232Z,22.31
2022-09-27T11:52:52.813Z,22.18
2022-09-27T11:55:54.186Z,22.28
2022-09-27T11:59:05.374Z,22.74
2022-09-27T12:02:14.231Z,23.32
2022-09-27T12:04:57.844Z,23.22
2022-09-27T12:07:47.648Z,22.71
2022-09-27T12:10:18.360Z,23.14
2022-09-27T12:13:09.173Z,23.43
2022-09-27T12:16:13.231Z,24.02
2022-09-27T12:18:54.972Z,23.45
2022-09-27T12:21:43.159Z,22.03
2022-09-27T12:24:31.432Z,22.46
2022-09-27T12:27:55.042Z,23.60
2022-09-27T12:30:22.745Z,23.68
2022-09-27T12:33:27.958Z,24.12
2022-09-27T12:36:00.513Z,23.30
2022-09-27T12:39:05.232Z,23.10
2022-09-27T12:42:06.995Z,22.94
2022-09-27T12:44:47.534Z,22.50
2022-09-27T12:47:42.248Z,23.32
2022-09-27T12:51:01.214Z,23.50
2022-09-27T12:54:00.347Z,23.45
2022-09-27T12:56:42.605Z,23.65
2022-09-27T12:59:23.251Z,23.23
2022-09-27T13:03:04.074Z,23.21
2022-09-27T13:05:55.594Z,22.97
2022-09-27T13:08:37.597Z,23.24
2022-09-27T13:11:19.456Z,23.49
2022-09-27T13:13:46.896Z,23.02
2022-09-27T13:16:15.026Z,22.87
2022-09-27T13:19:03.748Z,23.44
2022-09-27T13:21:54.195Z,23.53
2022-09-27T13:26:01.234Z,23.31
2022-09-27T13:28:58.520Z,23.62
2022-09-27T13:31:53.938Z,23.76
2022-09-27T13:34:44.411Z,23.73
2022-09-27T13:38:07.233Z,23.46
2022-09-27T13:41:30.359Z,24.17
2022-09-27T13:44:23.710Z,24.15
2022-09-27T13:47:18.246Z,24.26
2022-09-27T13:50:36.274Z,23.44
2022-09-27T13:53:31.931Z,23.43
2022-09-27T13:55:59.249Z,23.62
2022-09-27T13:59:00.625Z,23.70
2022-09-27T14:02:27.324Z,23.66
2022-09-27T14:05:14.288Z,23.71
2022-09-27T14:07:43.689Z,23.30
2022-09-27T14:10:16.313Z,23.33
2022-09-27T14:13:06.253Z,23.13
2022-09-27T14:16:18.305Z,23.28
2022-09-27T14:19:29.258Z,23.23
2022-09-27T14:22:14.217Z,23.40
2022-09-27T14:25:15.246Z,23.22
2022-09-27T14:28:00.209Z,23.60
2022-09-27T14:30:48.681Z,23.36
2022-09-27T14:33:58.279Z,23.88
2022-09-27T14:37:17.276Z,23.79
2022-09-27T14:40:08.048Z,23.33
2022-09-27T14:42:55.296Z,23.62
2022-09-27T14:45:58.286Z,23.59
2022-09-27T14:48:44.108Z,23.89
2022-09-27T14:51:14.572Z,23.94
2022-09-27T14:53:44.410Z,23.80
2022-09-27T14:56:23.666Z,24.11
2022-09-27T14:58:58.601Z,24.23
2022-09-27T15:01:25.846Z,24.10
2022-09-27T15:04:28.499Z,24.31
2022-09-27T15:07:29.314Z,24.22
2022-09-27T15:10:35.289Z,24.39
2022-09-27T15:13:18.794Z,24.55
2022-09-27T15:15:47.383Z,24.03
2022-09-27T15:18:34.391Z,24.24
2022-09-27T15:21:02.270Z,24.51
2022-09-27T15:23:59.641Z,24.52
2022-09-27T15:27:03.360Z,24.10
2022-09-27T15:29:51.386Z,24.33
2022-09-27T15:32:43.311Z,24.05
2022-09-27T15:35:27.236Z,24.38
2022-09-27T15:38:23.342Z,24.04
2022-09-27T15:40:50.811Z,23.97
2022-09-27T15:43:31.547Z,23.89
2022-09-27T15:46:04.653Z,23.46
2022-09-27T15:48:35.495Z,23.56
2022-09-27T15:51:03.154Z,23.35
2022-09-27T15:53:33.325Z,23.43
2022-09-27T15:56:01.658Z,23.35
2022-09-27T15:58:49.339Z,23.52
2022-09-27T16:01:50.438Z,23.27
2022-09-27T16:04:52.326Z,23.34
2022-09-27T16:07:20.320Z,23.15
2022-09-27T16:10:07.331Z,23.31
2022-09-27T16:12:47.900Z,23.05
2022-09-27T16:15:15.494Z,23.11
2022-09-27T16:17:43.722Z,23.00
2022-09-27T16:20:26.954Z,22.88
2022-09-27T16:23:14.405Z,22.08
2022-09-27T16:26:08.554Z,22.11
2022-09-27T16:29:02.399Z,22.16
2022-09-27T16:31:44.259Z,21.65
2022-09-27T16:34:31.401Z,22.02
2022-09-27T16:37:11.874Z,21.94
2022-09-27T16:39:39.754Z,21.59
2022-09-27T16:42:07.814Z,21.44
2022-09-27T16:44:36.076Z,21.77
2022-09-27T16:47:04.123Z,21.25
2022-09-27T16:49:49.531Z,21.38
2022-09-27T16:52:16.501Z,21.44
2022-09-27T16:54:43.634Z,21.33
2022-09-27T16:57:10.774Z,20.81
2022-09-27T16:59:57.411Z,20.69
2022-09-27T17:03:01.354Z,20.53
2022-09-27T17:06:02.408Z,20.62
2022-09-27T17:09:03.394Z,20.20
2022-09-27T17:11:43.889Z,19.80
2022-09-27T17:14:31.381Z,19.40
2022-09-27T17:17:11.948Z,19.22
2022-09-27T17:19:39.228Z,19.05
2022-09-27T17:22:09.270Z,18.66
2022-09-27T17:24:56.373Z,18.53
2022-09-27T17:27:57.379Z,18.50
2022-09-27T17:30:43.246Z,18.36
2022-09-27T17:33:10.117Z,18.39
2022-09-27T17:35:38.412Z,18.29
2022-09-27T17:38:05.531Z,17.75
2022-09-27T17:40:52.523Z,17.92
2022-09-27T17:43:35.679Z,17.91
2022-09-27T17:46:08.589Z,17.99
2022-09-27T17:48:55.664Z,17.61
2022-09-27T17:51:23.811Z,17.27
2022-09-27T17:53:51.981Z,17.40
2022-09-27T17:56:19.276Z,17.67
2022-09-27T17:58:47.913Z,17.46
2022-09-27T18:01:37.533Z,17.51
2022-09-27T18:04:32.196Z,17.07
2022-09-27T18:07:26.407Z,17.31
2022-09-27T18:10:07.850Z,17.28
2022-09-27T18:12:54.484Z,17.08
2022-09-27T18:15:55.485Z,16.52
2022-09-27T18:18:38.606Z,17.10
2022-09-27T18:21:30.411Z,16.69
2022-09-27T18:24:32.517Z,16.32
2022-09-27T18:27:18.079Z,16.79
2022-09-27T18:29:45.175Z,16.75
2022-09-27T18:32:12.131Z,16.77
2022-09-27T18:34:40.314Z,16.65
2022-09-27T18:37:07.571Z,16.81
2022-09-27T18:39:54.441Z,16.78
2022-09-27T18:42:55.431Z,16.71
2022-09-27T18:45:38.482Z,16.18
2022-09-27T18:48:05.932Z,16.63
2022-09-27T18:50:37.481Z,16.85
2022-09-27T18:53:04.561Z,16.80
2022-09-27T18:55:31.683Z,16.49
2022-09-27T18:57:59.124Z,15.98
2022-09-27T19:00:46.591Z,16.53
2022-09-27T19:03:48.427Z,16.48
2022-09-27T19:06:44.894Z,16.22
2022-09-27T19:09:26.821Z,16.22
2022-09-27T19:11:54.033Z,15.92
2022-09-27T19:14:22.831Z,16.00
2022-09-27T19:16:50.857Z,15.53
2022-09-27T19:19:19.537Z,15.92
2022-09-27T19:21:46.945Z,15.96
2022-09-27T19:24:34.471Z,15.95
2022-09-27T19:27:35.931Z,15.93
2022-09-27T19:30:17.495Z,15.91
2022-09-27T19:33:04.487Z,15.50
2022-09-27T19:35:45.098Z,15.67
2022-09-27T19:38:12.069Z,15.89
2022-09-27T19:40:39.218Z,15.84
2022-09-27T19:43:07.152Z,15.87
2022-09-27T19:45:37.884Z,15.61
2022-09-27T19:48:04.806Z,15.59
2022-09-27T19:50:45.466Z,16.10
2022-09-27T19:53:15.095Z,16.06
2022-09-27T19:55:56.694Z,15.21
2022-09-27T19:58:23.777Z,15.32
2022-09-27T20:01:19.290Z,15.63
2022-09-27T20:03:47.259Z,15.61
2022-09-27T20:06:34.514Z,15.73
2022-09-27T20:09:35.479Z,15.47
2022-09-27T20:12:36.491Z,15.20
2022-09-27T20:15:37.554Z,14.81
2022-09-27T20:18:18.153Z,15.05
2022-09-27T20:20:45.267Z,15.05
2022-09-27T20:23:32.492Z,15.27
2022-09-27T20:26:34.486Z,15.33
2022-09-27T20:29:15.124Z,15.36
2022-09-27T20:32:26.207Z,15.30
2022-09-27T20:35:03.984Z,15.33
2022-09-27T20:37:31.200Z,15.12
2022-09-27T20:39:58.933Z,15.03
2022-09-27T20:42:26.026Z,15.22
2022-09-27T20:45:13.531Z,14.92
2022-09-27T20:47:54.072Z,15.48
2022-09-27T20:50:21.171Z,15.49
2022-09-27T20:52:48.084Z,15.36
2022-09-27T20:55:15.122Z,15.42
2022-09-27T20:57:56.938Z,15.10
2022-09-27T21:00:44.602Z,15.32
2022-09-27T21:03:45.571Z,15.43
2022-09-27T21:06:27.253Z,15.45
2022-09-27T21:08:54.760Z,15.27
2022-09-27T21:11:22.804Z,15.28
2022-09-27T21:13:51.416Z,15.28
2022-09-27T21:16:20.909Z,15.26
2022-09-27T21:18:56.435Z,15.13
2022-09-27T21:21:24.888Z,15.28
2022-09-27T21:24:13.529Z,15.39
2022-09-27T21:27:14.549Z,15.52
2022-09-27T21:29:55.116Z,15.50
2022-09-27T21:32:44.538Z,15.37
2022-09-27T21:35:25.159Z,15.71
2022-09-27T21:37:56.455Z,15.87
2022-09-27T21:40:23.534Z,15.51
2022-09-27T21:42:55.593Z,15.55
2022-09-27T21:45:45.554Z,15.47
2022-09-27T21:48:41.620Z,15.56
2022-09-27T21:51:34.093Z,15.43
2022-09-27T21:54:02.708Z,15.07
2022-09-27T21:56:32.688Z,14.87
2022-09-27T21:58:59.719Z,15.26
2022-09-27T22:01:29.710Z,14.37
2022-09-27T22:03:57.451Z,14.98
2022-09-27T22:06:52.541Z,15.03
2022-09-27T22:09:53.569Z,14.69
2022-09-27T22:12:34.124Z,14.78
2022-09-27T22:15:01.011Z,14.18
2022-09-27T22:17:28.117Z,14.06
2022-09-27T22:19:54.967Z,14.18
2022-09-27T22:22:21.801Z,13.76
2022-09-27T22:25:08.546Z,13.91
2022-09-27T22:28:09.538Z,13.67
2022-09-27T22:30:56.592Z,13.59
2022-09-27T22:34:02.546Z,13.75
2022-09-27T22:36:31.001Z,13.12
2022-09-27T22:39:17.688Z,13.50
2022-09-27T22:42:18.586Z,13.36
2022-09-27T22:44:59.301Z,13.43
2022-09-27T22:47:26.256Z,13.16
2022-09-27T22:49:53.226Z,13.56
2022-09-27T22:52:20.194Z,13.48
2022-09-27T22:54:47.298Z,13.44
2022-09-27T22:57:14.195Z,13.34
2022-09-27T22:59:41.423Z,13.22
2022-09-27T23:02:28.624Z,13.18
2022-09-27T23:05:09.381Z,13.56
2022-09-27T23:07:36.221Z,13.15
2022-09-27T23:10:03.226Z,13.55
2022-09-27T23:12:31.651Z,13.07
2022-09-27T23:14:58.823Z,12.76
2022-09-27T23:17:25.699Z,13.31
2022-09-27T23:19:52.571Z,13.41
2022-09-27T23:22:19.427Z,13.20
2022-09-27T23:25:07.579Z,13.22
2022-09-27T23:28:08.606Z,13.50
2022-09-27T23:31:09.631Z,13.62
2022-09-27T23:34:12.576Z,13.13
2022-09-27T23:36:54.888Z,13.61
2022-09-27T23:39:25.301Z,13.38
2022-09-27T23:41:52.433Z,13.30
2022-09-27T23:44:19.382Z,13.34
2022-09-27T23:46:46.432Z,13.92
2022-09-27T23:49:14.307Z,14.03
2022-09-27T23:51:42.635Z,14.16
2022-09-27T23:54:09.644Z,13.85
2022-09-27T23:56:36.603Z,13.84
2022-09-27T23:59:03.608Z,14.11
